sensor_id;sensor_type;location;lat;lon;timestamp;temperature;humidity
5059;DHT22;2548;52.050;11.036;2023-07-13T00:01:20;16.20;99.90
5059;DHT22;2548;52.050;11.036;2023-07-13T00:03:51;16.00;99.90
5059;DHT22;2548;52.050;11.036;2023-07-13T00:06:18;16.00;99.90
5059;DHT22;2548;52.050;11.036;2023-07-13T00:08:59;15.90;99.90
5059;DHT22;2548;52.050;11.036;2023-07-13T00:11:27;15.80;99.90
5059;DHT22;2548;52.050;11.036;2023-07-13T00:14:07;15.70;99.90
5059;DHT22;2548;52.050;11.036;2023-07-13T00:16:39;15.70;99.90
5059;DHT22;2548;52.050;11.036;2023-07-13T00:19:21;15.50;99.90
5059;DHT22;2548;52.050;11.036;2023-07-13T00:21:52;15.50;99.90
5059;DHT22;2548;52.050;11.036;2023-07-13T00:24:30;15.50;99.90
5059;DHT22;2548;52.050;11.036;2023-07-13T00:26:58;15.50;99.90
5059;DHT22;2548;52.050;11.036;2023-07-13T00:29:31;15.50;99.90
5059;DHT22;2548;52.050;11.036;2023-07-13T00:32:00;15.50;99.90
5059;DHT22;2548;52.050;11.036;2023-07-13T00:34:28;15.50;99.90
5059;DHT22;2548;52.050;11.036;2023-07-13T00:36:56;15.50;99.90
5059;DHT22;2548;52.050;11.036;2023-07-13T00:39:30;15.60;99.90
5059;DHT22;2548;52.050;11.036;2023-07-13T00:42:02;15.60;99.90
5059;DHT22;2548;52.050;11.036;2023-07-13T00:44:33;15.60;99.90
5059;DHT22;2548;52.050;11.036;2023-07-13T00:47:01;15.60;99.90
5059;DHT22;2548;52.050;11.036;2023-07-13T00:49:32;15.50;99.90
5059;DHT22;2548;52.050;11.036;2023-07-13T00:52:03;15.40;99.90
5059;DHT22;2548;52.050;11.036;2023-07-13T00:54:33;15.40;99.90
5059;DHT22;2548;52.050;11.036;2023-07-13T00:57:04;15.40;99.90
5059;DHT22;2548;52.050;11.036;2023-07-13T00:59:34;15.40;99.90
5059;DHT22;2548;52.050;11.036;2023-07-13T01:02:09;15.40;99.90
5059;DHT22;2548;52.050;11.036;2023-07-13T01:04:46;15.40;99.90
5059;DHT22;2548;52.050;11.036;2023-07-13T01:07:19;15.30;99.90
5059;DHT22;2548;52.050;11.036;2023-07-13T01:09:55;15.20;99.90
5059;DHT22;2548;52.050;11.036;2023-07-13T01:12:23;15.10;99.90
5059;DHT22;2548;52.050;11.036;2023-07-13T01:15:05;15.10;99.90
5059;DHT22;2548;52.050;11.036;2023-07-13T01:17:34;15.00;99.90
5059;DHT22;2548;52.050;11.036;2023-07-13T01:20:03;15.00;99.90
5059;DHT22;2548;52.050;11.036;2023-07-13T01:22:35;14.80;99.90
5059;DHT22;2548;52.050;11.036;2023-07-13T01:25:02;14.70;99.90
5059;DHT22;2548;52.050;11.036;2023-07-13T01:27:34;14.60;99.90
5059;DHT22;2548;52.050;11.036;2023-07-13T01:30:11;14.60;99.90
5059;DHT22;2548;52.050;11.036;2023-07-13T01:32:41;14.60;99.90
5059;DHT22;2548;52.050;11.036;2023-07-13T01:35:09;14.60;99.90
5059;DHT22;2548;52.050;11.036;2023-07-13T01:37:43;14.60;99.90
5059;DHT22;2548;52.050;11.036;2023-07-13T01:40:14;14.60;99.90
5059;DHT22;2548;52.050;11.036;2023-07-13T01:42:43;14.60;99.90
5059;DHT22;2548;52.050;11.036;2023-07-13T01:45:11;14.60;99.90
5059;DHT22;2548;52.050;11.036;2023-07-13T01:47:42;14.60;99.90
5059;DHT22;2548;52.050;11.036;2023-07-13T01:50:10;14.50;99.90
5059;DHT22;2548;52.050;11.036;2023-07-13T01:52:37;14.50;99.90
5059;DHT22;2548;52.050;11.036;2023-07-13T01:55:07;14.50;99.90
5059;DHT22;2548;52.050;11.036;2023-07-13T01:57:41;14.50;99.90
5059;DHT22;2548;52.050;11.036;2023-07-13T02:00:10;14.50;99.90
5059;DHT22;2548;52.050;11.036;2023-07-13T02:02:53;14.50;99.90
5059;DHT22;2548;52.050;11.036;2023-07-13T02:05:21;14.50;99.90
5059;DHT22;2548;52.050;11.036;2023-07-13T02:07:54;14.50;99.90
5059;DHT22;2548;52.050;11.036;2023-07-13T02:10:23;14.50;99.90
5059;DHT22;2548;52.050;11.036;2023-07-13T02:12:51;14.50;99.90
5059;DHT22;2548;52.050;11.036;2023-07-13T02:15:18;14.50;99.90
5059;DHT22;2548;52.050;11.036;2023-07-13T02:17:46;14.60;99.90
5059;DHT22;2548;52.050;11.036;2023-07-13T02:20:13;14.70;99.90
5059;DHT22;2548;52.050;11.036;2023-07-13T02:22:52;14.80;99.90
5059;DHT22;2548;52.050;11.036;2023-07-13T02:25:25;14.80;99.90
5059;DHT22;2548;52.050;11.036;2023-07-13T02:27:53;14.80;99.90
5059;DHT22;2548;52.050;11.036;2023-07-13T02:30:20;14.80;99.90
5059;DHT22;2548;52.050;11.036;2023-07-13T02:32:54;14.80;99.90
5059;DHT22;2548;52.050;11.036;2023-07-13T02:35:27;14.70;99.90
5059;DHT22;2548;52.050;11.036;2023-07-13T02:37:55;14.60;99.90
5059;DHT22;2548;52.050;11.036;2023-07-13T02:40:25;14.60;99.90
5059;DHT22;2548;52.050;11.036;2023-07-13T02:42:55;14.60;99.90
5059;DHT22;2548;52.050;11.036;2023-07-13T02:45:22;14.50;99.90
5059;DHT22;2548;52.050;11.036;2023-07-13T02:47:55;14.40;99.90
5059;DHT22;2548;52.050;11.036;2023-07-13T02:50:23;14.30;99.90
5059;DHT22;2548;52.050;11.036;2023-07-13T02:52:50;14.30;99.90
5059;DHT22;2548;52.050;11.036;2023-07-13T02:55:17;14.20;99.90
5059;DHT22;2548;52.050;11.036;2023-07-13T02:57:46;14.10;99.90
5059;DHT22;2548;52.050;11.036;2023-07-13T03:00:17;14.00;99.90
5059;DHT22;2548;52.050;11.036;2023-07-13T03:02:45;13.90;99.90
5059;DHT22;2548;52.050;11.036;2023-07-13T03:05:22;13.90;99.90
5059;DHT22;2548;52.050;11.036;2023-07-13T03:07:55;13.90;99.90
5059;DHT22;2548;52.050;11.036;2023-07-13T03:10:24;13.90;99.90
5059;DHT22;2548;52.050;11.036;2023-07-13T03:12:56;13.90;99.90
5059;DHT22;2548;52.050;11.036;2023-07-13T03:15:27;13.90;99.90
5059;DHT22;2548;52.050;11.036;2023-07-13T03:18:08;13.80;99.90
5059;DHT22;2548;52.050;11.036;2023-07-13T03:20:40;13.80;99.90
5059;DHT22;2548;52.050;11.036;2023-07-13T03:23:10;13.90;99.90
5059;DHT22;2548;52.050;11.036;2023-07-13T03:25:41;13.90;99.90
5059;DHT22;2548;52.050;11.036;2023-07-13T03:28:10;13.90;99.90
5059;DHT22;2548;52.050;11.036;2023-07-13T03:30:41;13.90;99.90
5059;DHT22;2548;52.050;11.036;2023-07-13T03:33:09;13.90;99.90
5059;DHT22;2548;52.050;11.036;2023-07-13T03:35:40;13.90;99.90
5059;DHT22;2548;52.050;11.036;2023-07-13T03:38:08;13.90;99.90
5059;DHT22;2548;52.050;11.036;2023-07-13T03:40:39;14.00;99.90
5059;DHT22;2548;52.050;11.036;2023-07-13T03:43:06;13.90;99.90
5059;DHT22;2548;52.050;11.036;2023-07-13T03:45:37;13.90;99.90
5059;DHT22;2548;52.050;11.036;2023-07-13T03:48:05;13.80;99.90
5059;DHT22;2548;52.050;11.036;2023-07-13T03:50:33;13.80;99.90
5059;DHT22;2548;52.050;11.036;2023-07-13T03:53:03;13.70;99.90
5059;DHT22;2548;52.050;11.036;2023-07-13T03:55:31;13.60;99.90
5059;DHT22;2548;52.050;11.036;2023-07-13T03:58:05;13.70;99.90
5059;DHT22;2548;52.050;11.036;2023-07-13T04:00:52;13.70;99.90
5059;DHT22;2548;52.050;11.036;2023-07-13T04:03:23;13.70;99.90
5059;DHT22;2548;52.050;11.036;2023-07-13T04:05:55;13.70;99.90
5059;DHT22;2548;52.050;11.036;2023-07-13T04:08:26;13.80;99.90
5059;DHT22;2548;52.050;11.036;2023-07-13T04:10:54;13.80;99.90
5059;DHT22;2548;52.050;11.036;2023-07-13T04:13:26;13.80;99.90
5059;DHT22;2548;52.050;11.036;2023-07-13T04:15:55;13.80;99.90
5059;DHT22;2548;52.050;11.036;2023-07-13T04:18:23;13.90;99.90
5059;DHT22;2548;52.050;11.036;2023-07-13T04:20:53;13.90;99.90
5059;DHT22;2548;52.050;11.036;2023-07-13T04:23:24;13.90;99.90
5059;DHT22;2548;52.050;11.036;2023-07-13T04:25:57;14.00;99.90
5059;DHT22;2548;52.050;11.036;2023-07-13T04:28:25;14.10;99.90
5059;DHT22;2548;52.050;11.036;2023-07-13T04:30:54;14.20;99.90
5059;DHT22;2548;52.050;11.036;2023-07-13T04:33:26;14.30;99.90
5059;DHT22;2548;52.050;11.036;2023-07-13T04:35:55;14.50;99.90
5059;DHT22;2548;52.050;11.036;2023-07-13T04:38:31;14.60;99.90
5059;DHT22;2548;52.050;11.036;2023-07-13T04:41:06;14.70;99.90
5059;DHT22;2548;52.050;11.036;2023-07-13T04:43:34;14.80;99.90
5059;DHT22;2548;52.050;11.036;2023-07-13T04:46:13;14.80;99.90
5059;DHT22;2548;52.050;11.036;2023-07-13T04:48:44;14.90;99.90
5059;DHT22;2548;52.050;11.036;2023-07-13T04:51:11;14.90;99.90
5059;DHT22;2548;52.050;11.036;2023-07-13T04:53:42;15.00;99.90
5059;DHT22;2548;52.050;11.036;2023-07-13T04:56:10;15.00;99.90
5059;DHT22;2548;52.050;11.036;2023-07-13T04:58:38;15.10;99.90
5059;DHT22;2548;52.050;11.036;2023-07-13T05:01:10;15.20;99.90
5059;DHT22;2548;52.050;11.036;2023-07-13T05:03:45;15.30;99.90
5059;DHT22;2548;52.050;11.036;2023-07-13T05:06:13;15.40;99.90
5059;DHT22;2548;52.050;11.036;2023-07-13T05:08:43;15.40;99.90
5059;DHT22;2548;52.050;11.036;2023-07-13T05:11:11;15.50;99.90
5059;DHT22;2548;52.050;11.036;2023-07-13T05:13:38;15.60;99.90
5059;DHT22;2548;52.050;11.036;2023-07-13T05:16:08;15.70;99.90
5059;DHT22;2548;52.050;11.036;2023-07-13T05:18:37;15.80;99.90
5059;DHT22;2548;52.050;11.036;2023-07-13T05:21:09;15.90;99.90
5059;DHT22;2548;52.050;11.036;2023-07-13T05:23:40;16.00;99.90
5059;DHT22;2548;52.050;11.036;2023-07-13T05:26:08;16.00;99.90
5059;DHT22;2548;52.050;11.036;2023-07-13T05:28:36;16.00;99.90
5059;DHT22;2548;52.050;11.036;2023-07-13T05:31:04;16.00;99.90
5059;DHT22;2548;52.050;11.036;2023-07-13T05:33:32;16.00;99.90
5059;DHT22;2548;52.050;11.036;2023-07-13T05:36:11;16.10;99.90
5059;DHT22;2548;52.050;11.036;2023-07-13T05:38:44;16.10;99.90
5059;DHT22;2548;52.050;11.036;2023-07-13T05:41:12;16.20;99.90
5059;DHT22;2548;52.050;11.036;2023-07-13T05:43:49;16.30;99.90
5059;DHT22;2548;52.050;11.036;2023-07-13T05:46:22;16.40;99.90
5059;DHT22;2548;52.050;11.036;2023-07-13T05:48:50;16.50;99.90
5059;DHT22;2548;52.050;11.036;2023-07-13T05:51:24;16.50;99.90
5059;DHT22;2548;52.050;11.036;2023-07-13T05:53:55;16.60;99.90
5059;DHT22;2548;52.050;11.036;2023-07-13T05:56:22;16.70;99.90
5059;DHT22;2548;52.050;11.036;2023-07-13T05:58:54;16.90;99.90
5059;DHT22;2548;52.050;11.036;2023-07-13T06:01:21;17.00;99.90
5059;DHT22;2548;52.050;11.036;2023-07-13T06:03:50;17.10;99.90
5059;DHT22;2548;52.050;11.036;2023-07-13T06:06:24;17.20;99.90
5059;DHT22;2548;52.050;11.036;2023-07-13T06:08:52;17.30;99.90
5059;DHT22;2548;52.050;11.036;2023-07-13T06:11:25;17.40;99.90
5059;DHT22;2548;52.050;11.036;2023-07-13T06:13:59;17.50;99.90
5059;DHT22;2548;52.050;11.036;2023-07-13T06:16:27;17.70;99.90
5059;DHT22;2548;52.050;11.036;2023-07-13T06:18:57;17.80;99.90
5059;DHT22;2548;52.050;11.036;2023-07-13T06:21:26;17.90;99.90
5059;DHT22;2548;52.050;11.036;2023-07-13T06:23:56;18.00;99.90
5059;DHT22;2548;52.050;11.036;2023-07-13T06:26:27;18.10;99.90
5059;DHT22;2548;52.050;11.036;2023-07-13T06:28:55;18.20;99.90
5059;DHT22;2548;52.050;11.036;2023-07-13T06:31:26;18.40;99.90
5059;DHT22;2548;52.050;11.036;2023-07-13T06:33:59;18.50;99.90
5059;DHT22;2548;52.050;11.036;2023-07-13T06:36:28;18.60;99.90
5059;DHT22;2548;52.050;11.036;2023-07-13T06:38:55;18.70;99.90
5059;DHT22;2548;52.050;11.036;2023-07-13T06:41:25;18.90;99.90
5059;DHT22;2548;52.050;11.036;2023-07-13T06:44:05;19.00;99.90
5059;DHT22;2548;52.050;11.036;2023-07-13T06:46:35;19.30;99.90
5059;DHT22;2548;52.050;11.036;2023-07-13T06:49:12;19.40;99.90
5059;DHT22;2548;52.050;11.036;2023-07-13T06:51:43;19.50;99.90
5059;DHT22;2548;52.050;11.036;2023-07-13T06:54:10;19.70;99.90
5059;DHT22;2548;52.050;11.036;2023-07-13T06:56:38;19.80;99.90
5059;DHT22;2548;52.050;11.036;2023-07-13T06:59:05;19.90;99.90
5059;DHT22;2548;52.050;11.036;2023-07-13T07:01:44;20.00;99.90
5059;DHT22;2548;52.050;11.036;2023-07-13T07:04:18;20.00;99.90
5059;DHT22;2548;52.050;11.036;2023-07-13T07:06:47;20.00;99.90
5059;DHT22;2548;52.050;11.036;2023-07-13T07:09:14;20.10;99.90
5059;DHT22;2548;52.050;11.036;2023-07-13T07:11:45;20.30;99.90
5059;DHT22;2548;52.050;11.036;2023-07-13T07:14:24;20.40;99.90
5059;DHT22;2548;52.050;11.036;2023-07-13T07:16:52;20.60;99.90
5059;DHT22;2548;52.050;11.036;2023-07-13T07:19:25;20.80;99.90
5059;DHT22;2548;52.050;11.036;2023-07-13T07:21:56;21.00;99.90
5059;DHT22;2548;52.050;11.036;2023-07-13T07:24:24;21.20;99.90
5059;DHT22;2548;52.050;11.036;2023-07-13T07:26:54;21.40;99.90
5059;DHT22;2548;52.050;11.036;2023-07-13T07:29:24;21.50;99.90
5059;DHT22;2548;52.050;11.036;2023-07-13T07:32:03;21.30;99.90
5059;DHT22;2548;52.050;11.036;2023-07-13T07:34:30;21.10;99.90
5059;DHT22;2548;52.050;11.036;2023-07-13T07:37:10;21.10;99.90
5059;DHT22;2548;52.050;11.036;2023-07-13T07:39:38;21.10;99.90
5059;DHT22;2548;52.050;11.036;2023-07-13T07:42:06;21.40;99.90
5059;DHT22;2548;52.050;11.036;2023-07-13T07:44:37;21.40;99.90
5059;DHT22;2548;52.050;11.036;2023-07-13T07:47:07;21.50;99.90
5059;DHT22;2548;52.050;11.036;2023-07-13T07:49:43;21.50;99.90
5059;DHT22;2548;52.050;11.036;2023-07-13T07:52:12;21.30;99.90
5059;DHT22;2548;52.050;11.036;2023-07-13T07:54:44;21.00;99.90
5059;DHT22;2548;52.050;11.036;2023-07-13T07:57:23;20.80;99.90
5059;DHT22;2548;52.050;11.036;2023-07-13T07:59:55;20.70;99.90
5059;DHT22;2548;52.050;11.036;2023-07-13T08:02:24;20.80;99.90
5059;DHT22;2548;52.050;11.036;2023-07-13T08:04:54;21.00;99.90
5059;DHT22;2548;52.050;11.036;2023-07-13T08:07:23;21.30;99.90
5059;DHT22;2548;52.050;11.036;2023-07-13T08:09:54;21.50;99.90
5059;DHT22;2548;52.050;11.036;2023-07-13T08:12:24;21.60;99.90
5059;DHT22;2548;52.050;11.036;2023-07-13T08:14:54;21.80;99.90
5059;DHT22;2548;52.050;11.036;2023-07-13T08:17:24;21.80;99.90
5059;DHT22;2548;52.050;11.036;2023-07-13T08:19:51;21.90;99.90
5059;DHT22;2548;52.050;11.036;2023-07-13T08:22:19;22.00;99.90
5059;DHT22;2548;52.050;11.036;2023-07-13T08:24:48;22.10;99.90
5059;DHT22;2548;52.050;11.036;2023-07-13T08:27:21;22.20;99.90
5059;DHT22;2548;52.050;11.036;2023-07-13T08:29:49;22.30;99.90
5059;DHT22;2548;52.050;11.036;2023-07-13T08:32:17;22.20;99.90
5059;DHT22;2548;52.050;11.036;2023-07-13T08:34:57;21.90;99.90
5059;DHT22;2548;52.050;11.036;2023-07-13T08:37:25;21.90;99.90
5059;DHT22;2548;52.050;11.036;2023-07-13T08:39:57;22.00;99.90
5059;DHT22;2548;52.050;11.036;2023-07-13T08:42:32;22.30;99.90
5059;DHT22;2548;52.050;11.036;2023-07-13T08:45:08;22.40;99.90
5059;DHT22;2548;52.050;11.036;2023-07-13T08:47:47;22.30;99.90
5059;DHT22;2548;52.050;11.036;2023-07-13T08:50:19;22.10;99.90
5059;DHT22;2548;52.050;11.036;2023-07-13T08:53:01;22.10;99.90
5059;DHT22;2548;52.050;11.036;2023-07-13T08:55:34;22.00;99.90
5059;DHT22;2548;52.050;11.036;2023-07-13T08:58:15;22.20;99.90
5059;DHT22;2548;52.050;11.036;2023-07-13T09:00:48;22.30;99.90
5059;DHT22;2548;52.050;11.036;2023-07-13T09:03:26;22.40;99.90
5059;DHT22;2548;52.050;11.036;2023-07-13T09:05:58;22.70;99.90
5059;DHT22;2548;52.050;11.036;2023-07-13T09:11:36;22.70;99.90
5059;DHT22;2548;52.050;11.036;2023-07-13T09:17:14;22.50;99.90
5059;DHT22;2548;52.050;11.036;2023-07-13T09:19:47;22.80;99.90
5059;DHT22;2548;52.050;11.036;2023-07-13T09:22:24;23.00;99.90
5059;DHT22;2548;52.050;11.036;2023-07-13T09:25:02;23.10;99.90
5059;DHT22;2548;52.050;11.036;2023-07-13T09:27:40;23.00;99.90
5059;DHT22;2548;52.050;11.036;2023-07-13T09:30:26;22.90;99.90
5059;DHT22;2548;52.050;11.036;2023-07-13T09:32:58;22.80;99.90
5059;DHT22;2548;52.050;11.036;2023-07-13T09:35:27;22.60;99.90
5059;DHT22;2548;52.050;11.036;2023-07-13T09:38:02;22.30;99.90
5059;DHT22;2548;52.050;11.036;2023-07-13T09:43:29;22.10;99.90
5059;DHT22;2548;52.050;11.036;2023-07-13T09:46:01;22.00;99.90
5059;DHT22;2548;52.050;11.036;2023-07-13T09:48:35;22.10;99.90
5059;DHT22;2548;52.050;11.036;2023-07-13T09:51:15;22.30;99.90
5059;DHT22;2548;52.050;11.036;2023-07-13T09:53:44;22.30;99.90
5059;DHT22;2548;52.050;11.036;2023-07-13T09:56:22;22.30;99.90
5059;DHT22;2548;52.050;11.036;2023-07-13T09:58:54;22.20;99.90
5059;DHT22;2548;52.050;11.036;2023-07-13T10:01:33;22.30;99.90
5059;DHT22;2548;52.050;11.036;2023-07-13T10:04:11;22.40;99.90
5059;DHT22;2548;52.050;11.036;2023-07-13T10:06:40;22.50;99.90
5059;DHT22;2548;52.050;11.036;2023-07-13T10:09:09;22.70;99.90
5059;DHT22;2548;52.050;11.036;2023-07-13T10:11:39;22.80;99.90
5059;DHT22;2548;52.050;11.036;2023-07-13T10:14:14;22.90;99.90
5059;DHT22;2548;52.050;11.036;2023-07-13T10:16:46;23.10;99.90
5059;DHT22;2548;52.050;11.036;2023-07-13T10:19:19;23.20;99.90
5059;DHT22;2548;52.050;11.036;2023-07-13T10:21:53;23.30;99.90
5059;DHT22;2548;52.050;11.036;2023-07-13T10:24:26;23.10;99.90
5059;DHT22;2548;52.050;11.036;2023-07-13T10:27:01;22.90;99.90
5059;DHT22;2548;52.050;11.036;2023-07-13T10:29:35;22.80;99.90
5059;DHT22;2548;52.050;11.036;2023-07-13T10:32:09;22.50;99.90
5059;DHT22;2548;52.050;11.036;2023-07-13T10:34:39;22.60;99.90
5059;DHT22;2548;52.050;11.036;2023-07-13T10:37:09;22.80;99.90
5059;DHT22;2548;52.050;11.036;2023-07-13T10:39:45;23.10;99.90
5059;DHT22;2548;52.050;11.036;2023-07-13T10:42:28;23.10;99.90
5059;DHT22;2548;52.050;11.036;2023-07-13T10:44:57;22.90;99.90
5059;DHT22;2548;52.050;11.036;2023-07-13T10:47:26;22.90;99.90
5059;DHT22;2548;52.050;11.036;2023-07-13T10:49:56;22.90;99.90
5059;DHT22;2548;52.050;11.036;2023-07-13T10:52:45;22.90;99.90
5059;DHT22;2548;52.050;11.036;2023-07-13T10:55:38;22.70;99.90
5059;DHT22;2548;52.050;11.036;2023-07-13T10:58:21;22.60;99.90
5059;DHT22;2548;52.050;11.036;2023-07-13T11:00:56;22.90;99.90
5059;DHT22;2548;52.050;11.036;2023-07-13T11:03:27;23.20;99.90
5059;DHT22;2548;52.050;11.036;2023-07-13T11:06:08;23.30;99.90
5059;DHT22;2548;52.050;11.036;2023-07-13T11:08:52;23.50;99.90
5059;DHT22;2548;52.050;11.036;2023-07-13T11:11:38;23.40;99.90
5059;DHT22;2548;52.050;11.036;2023-07-13T11:14:27;23.50;99.90
5059;DHT22;2548;52.050;11.036;2023-07-13T11:16:58;23.60;99.90
5059;DHT22;2548;52.050;11.036;2023-07-13T11:19:41;23.90;99.90
5059;DHT22;2548;52.050;11.036;2023-07-13T11:22:25;24.00;99.90
5059;DHT22;2548;52.050;11.036;2023-07-13T11:25:30;24.30;99.90
5059;DHT22;2548;52.050;11.036;2023-07-13T11:31:12;24.80;99.90
5059;DHT22;2548;52.050;11.036;2023-07-13T11:34:06;24.50;99.90
5059;DHT22;2548;52.050;11.036;2023-07-13T11:36:39;24.40;99.90
5059;DHT22;2548;52.050;11.036;2023-07-13T11:39:29;24.60;99.90
5059;DHT22;2548;52.050;11.036;2023-07-13T11:42:03;24.60;99.90
5059;DHT22;2548;52.050;11.036;2023-07-13T11:44:35;24.80;99.90
5059;DHT22;2548;52.050;11.036;2023-07-13T11:47:09;24.90;99.90
5059;DHT22;2548;52.050;11.036;2023-07-13T11:49:43;24.80;99.90
5059;DHT22;2548;52.050;11.036;2023-07-13T11:52:19;25.00;99.90
5059;DHT22;2548;52.050;11.036;2023-07-13T11:54:50;25.00;99.90
5059;DHT22;2548;52.050;11.036;2023-07-13T11:57:26;24.90;99.90
5059;DHT22;2548;52.050;11.036;2023-07-13T11:59:59;24.70;99.90
5059;DHT22;2548;52.050;11.036;2023-07-13T12:02:32;24.60;99.90
5059;DHT22;2548;52.050;11.036;2023-07-13T12:05:03;24.40;99.90
5059;DHT22;2548;52.050;11.036;2023-07-13T12:07:35;24.40;99.90
5059;DHT22;2548;52.050;11.036;2023-07-13T12:10:18;24.40;99.90
5059;DHT22;2548;52.050;11.036;2023-07-13T12:12:52;24.40;99.90
5059;DHT22;2548;52.050;11.036;2023-07-13T12:15:21;24.30;99.90
5059;DHT22;2548;52.050;11.036;2023-07-13T12:17:52;24.30;99.90
5059;DHT22;2548;52.050;11.036;2023-07-13T12:20:27;24.30;99.90
5059;DHT22;2548;52.050;11.036;2023-07-13T12:22:55;24.40;99.90
5059;DHT22;2548;52.050;11.036;2023-07-13T12:25:29;24.60;99.90
5059;DHT22;2548;52.050;11.036;2023-07-13T12:28:00;24.70;99.90
5059;DHT22;2548;52.050;11.036;2023-07-13T12:30:48;24.90;99.90
5059;DHT22;2548;52.050;11.036;2023-07-13T12:33:16;25.00;99.90
5059;DHT22;2548;52.050;11.036;2023-07-13T12:35:48;25.20;99.90
5059;DHT22;2548;52.050;11.036;2023-07-13T12:38:19;25.40;99.90
5059;DHT22;2548;52.050;11.036;2023-07-13T12:40:51;25.40;99.90
5059;DHT22;2548;52.050;11.036;2023-07-13T12:43:20;25.40;99.90
5059;DHT22;2548;52.050;11.036;2023-07-13T12:45:57;25.40;99.90
5059;DHT22;2548;52.050;11.036;2023-07-13T12:48:39;25.50;99.90
5059;DHT22;2548;52.050;11.036;2023-07-13T12:51:22;25.70;99.90
5059;DHT22;2548;52.050;11.036;2023-07-13T12:53:56;26.10;99.90
5059;DHT22;2548;52.050;11.036;2023-07-13T12:56:27;26.30;99.90
5059;DHT22;2548;52.050;11.036;2023-07-13T12:58:58;26.30;99.90
5059;DHT22;2548;52.050;11.036;2023-07-13T13:01:37;26.30;99.90
5059;DHT22;2548;52.050;11.036;2023-07-13T13:04:05;25.90;99.90
5059;DHT22;2548;52.050;11.036;2023-07-13T13:06:38;25.60;99.90
5059;DHT22;2548;52.050;11.036;2023-07-13T13:09:15;25.70;99.90
5059;DHT22;2548;52.050;11.036;2023-07-13T13:11:44;25.50;99.80
5059;DHT22;2548;52.050;11.036;2023-07-13T13:14:18;25.70;99.90
5059;DHT22;2548;52.050;11.036;2023-07-13T13:16:48;25.50;99.60
5059;DHT22;2548;52.050;11.036;2023-07-13T13:19:24;25.40;99.90
5059;DHT22;2548;52.050;11.036;2023-07-13T13:21:55;25.30;99.90
5059;DHT22;2548;52.050;11.036;2023-07-13T13:24:28;25.50;99.90
5059;DHT22;2548;52.050;11.036;2023-07-13T13:26:56;25.60;99.50
5059;DHT22;2548;52.050;11.036;2023-07-13T13:29:25;25.70;99.90
5059;DHT22;2548;52.050;11.036;2023-07-13T13:31:53;26.00;99.60
5059;DHT22;2548;52.050;11.036;2023-07-13T13:34:24;26.40;99.40
5059;DHT22;2548;52.050;11.036;2023-07-13T13:36:54;26.30;98.50
5059;DHT22;2548;52.050;11.036;2023-07-13T13:39:24;26.10;98.60
5059;DHT22;2548;52.050;11.036;2023-07-13T13:41:53;26.00;98.80
5059;DHT22;2548;52.050;11.036;2023-07-13T13:44:33;25.80;98.40
5059;DHT22;2548;52.050;11.036;2023-07-13T13:47:04;25.40;98.60
5059;DHT22;2548;52.050;11.036;2023-07-13T13:49:33;25.00;98.20
5059;DHT22;2548;52.050;11.036;2023-07-13T13:52:09;24.70;98.60
5059;DHT22;2548;52.050;11.036;2023-07-13T13:54:40;24.60;99.30
5059;DHT22;2548;52.050;11.036;2023-07-13T13:57:08;24.50;99.20
5059;DHT22;2548;52.050;11.036;2023-07-13T13:59:38;24.40;99.90
5059;DHT22;2548;52.050;11.036;2023-07-13T14:02:23;24.40;99.90
5059;DHT22;2548;52.050;11.036;2023-07-13T14:04:58;24.30;99.90
5059;DHT22;2548;52.050;11.036;2023-07-13T14:07:31;24.30;99.90
5059;DHT22;2548;52.050;11.036;2023-07-13T14:09:59;24.20;99.90
5059;DHT22;2548;52.050;11.036;2023-07-13T14:12:30;24.20;99.90
5059;DHT22;2548;52.050;11.036;2023-07-13T14:15:04;24.30;99.90
5059;DHT22;2548;52.050;11.036;2023-07-13T14:17:33;24.50;99.90
5059;DHT22;2548;52.050;11.036;2023-07-13T14:20:00;24.70;99.90
5059;DHT22;2548;52.050;11.036;2023-07-13T14:22:32;24.70;99.90
5059;DHT22;2548;52.050;11.036;2023-07-13T14:24:59;24.60;99.90
5059;DHT22;2548;52.050;11.036;2023-07-13T14:27:26;24.50;99.90
5059;DHT22;2548;52.050;11.036;2023-07-13T14:29:54;24.40;99.90
5059;DHT22;2548;52.050;11.036;2023-07-13T14:32:21;24.60;99.90
5059;DHT22;2548;52.050;11.036;2023-07-13T14:34:55;24.70;99.90
5059;DHT22;2548;52.050;11.036;2023-07-13T14:37:24;24.70;99.90
5059;DHT22;2548;52.050;11.036;2023-07-13T14:39:56;24.80;99.90
5059;DHT22;2548;52.050;11.036;2023-07-13T14:42:23;25.00;99.90
5059;DHT22;2548;52.050;11.036;2023-07-13T14:44:51;24.90;99.90
5059;DHT22;2548;52.050;11.036;2023-07-13T14:47:19;24.90;99.90
5059;DHT22;2548;52.050;11.036;2023-07-13T14:49:46;24.90;99.60
5059;DHT22;2548;52.050;11.036;2023-07-13T14:52:17;25.00;99.60
5059;DHT22;2548;52.050;11.036;2023-07-13T14:54:46;25.20;99.60
5059;DHT22;2548;52.050;11.036;2023-07-13T14:57:17;25.10;98.90
5059;DHT22;2548;52.050;11.036;2023-07-13T14:59:46;25.30;99.10
5059;DHT22;2548;52.050;11.036;2023-07-13T15:02:20;25.60;99.10
5059;DHT22;2548;52.050;11.036;2023-07-13T15:04:53;25.80;99.40
5059;DHT22;2548;52.050;11.036;2023-07-13T15:07:22;25.70;99.30
5059;DHT22;2548;52.050;11.036;2023-07-13T15:09:49;25.60;99.60
5059;DHT22;2548;52.050;11.036;2023-07-13T15:12:19;25.50;99.70
5059;DHT22;2548;52.050;11.036;2023-07-13T15:14:46;25.50;99.90
5059;DHT22;2548;52.050;11.036;2023-07-13T15:17:23;25.40;99.90
5059;DHT22;2548;52.050;11.036;2023-07-13T15:19:56;25.30;98.80
5059;DHT22;2548;52.050;11.036;2023-07-13T15:22:25;25.50;98.50
5059;DHT22;2548;52.050;11.036;2023-07-13T15:24:53;25.50;98.80
5059;DHT22;2548;52.050;11.036;2023-07-13T15:27:25;25.20;98.90
5059;DHT22;2548;52.050;11.036;2023-07-13T15:29:53;24.90;99.10
5059;DHT22;2548;52.050;11.036;2023-07-13T15:32:20;24.60;99.30
5059;DHT22;2548;52.050;11.036;2023-07-13T15:34:51;24.40;99.80
5059;DHT22;2548;52.050;11.036;2023-07-13T15:37:18;24.20;99.90
5059;DHT22;2548;52.050;11.036;2023-07-13T15:39:51;23.90;99.90
5059;DHT22;2548;52.050;11.036;2023-07-13T15:42:25;23.40;99.90
5059;DHT22;2548;52.050;11.036;2023-07-13T15:44:56;23.00;99.90
5059;DHT22;2548;52.050;11.036;2023-07-13T15:47:27;22.70;99.90
5059;DHT22;2548;52.050;11.036;2023-07-13T15:50:01;22.40;99.90
5059;DHT22;2548;52.050;11.036;2023-07-13T15:52:36;22.50;99.90
5059;DHT22;2548;52.050;11.036;2023-07-13T15:55:07;22.60;99.90
5059;DHT22;2548;52.050;11.036;2023-07-13T15:57:40;22.40;99.90
5059;DHT22;2548;52.050;11.036;2023-07-13T16:00:21;22.20;99.90
5059;DHT22;2548;52.050;11.036;2023-07-13T16:02:50;22.00;99.90
5059;DHT22;2548;52.050;11.036;2023-07-13T16:05:18;21.80;99.90
5059;DHT22;2548;52.050;11.036;2023-07-13T16:07:49;21.70;99.90
5059;DHT22;2548;52.050;11.036;2023-07-13T16:10:21;21.60;99.90
5059;DHT22;2548;52.050;11.036;2023-07-13T16:12:50;21.50;99.90
5059;DHT22;2548;52.050;11.036;2023-07-13T16:15:20;21.30;99.90
5059;DHT22;2548;52.050;11.036;2023-07-13T16:17:48;21.20;99.90
5059;DHT22;2548;52.050;11.036;2023-07-13T16:20:18;21.00;99.90
5059;DHT22;2548;52.050;11.036;2023-07-13T16:22:49;20.90;99.90
5059;DHT22;2548;52.050;11.036;2023-07-13T16:25:21;20.70;99.90
5059;DHT22;2548;52.050;11.036;2023-07-13T16:27:52;20.50;99.90